createdAt,value
2022-10-17T00:01:06.232Z,9.91
2022-10-17T00:03:35.828Z,9.94
2022-10-17T00:06:21.815Z,9.91
2022-10-17T00:08:49.318Z,9.91
2022-10-17T00:11:20.272Z,9.93
2022-10-17T00:13:50.167Z,9.95
2022-10-17T00:16:37.156Z,9.91
2022-10-17T00:19:07.274Z,9.98
2022-10-17T00:21:35.068Z,9.95
2022-10-17T00:24:02.587Z,9.99
2022-10-17T00:26:30.280Z,9.99
2022-10-17T00:28:58.188Z,10.01
2022-10-17T00:31:25.755Z,10.04
2022-10-17T00:33:53.598Z,10.06
2022-10-17T00:36:23.966Z,10.08
2022-10-17T00:38:54.285Z,10.10
2022-10-17T00:41:25.320Z,10.19
2022-10-17T00:43:52.681Z,10.16
2022-10-17T00:46:21.774Z,10.20
2022-10-17T00:48:52.672Z,10.25
2022-10-17T00:51:27.523Z,10.29
2022-10-17T00:53:56.536Z,10.30
2022-10-17T00:56:24.149Z,10.36
2022-10-17T00:58:52.369Z,10.37
2022-10-17T01:01:20.098Z,10.40
2022-10-17T01:03:47.653Z,10.42
2022-10-17T01:06:15.125Z,10.42
2022-10-17T01:08:42.905Z,10.50
2022-10-17T01:11:29.144Z,10.50
2022-10-17T01:14:25.483Z,10.53
2022-10-17T01:17:11.966Z,10.56
2022-10-17T01:19:50.701Z,10.60
2022-10-17T01:22:30.227Z,10.57
2022-10-17T01:25:12.829Z,10.24
2022-10-17T01:27:49.537Z,10.09
2022-10-17T01:30:44.822Z,10.08
2022-10-17T01:33:32.790Z,10.05
2022-10-17T01:36:13.090Z,10.01
2022-10-17T01:38:46.093Z,9.94
2022-10-17T01:41:40.677Z,9.99
2022-10-17T01:44:28.263Z,9.97
2022-10-17T01:47:04.601Z,9.98
2022-10-17T01:49:35.141Z,10.01
2022-10-17T01:52:14.912Z,10.04
2022-10-17T01:54:44.241Z,9.99
2022-10-17T01:57:20.514Z,9.98
2022-10-17T01:59:51.875Z,9.95
2022-10-17T02:02:21.291Z,9.85
2022-10-17T02:04:51.539Z,9.91
2022-10-17T02:07:19.247Z,9.84
2022-10-17T02:09:47.284Z,9.75
2022-10-17T02:12:56.381Z,9.75
2022-10-17T02:15:44.954Z,9.78
2022-10-17T02:18:41.787Z,9.87
2022-10-17T02:21:14.580Z,9.93
2022-10-17T02:23:54.051Z,9.98
2022-10-17T02:26:47.584Z,9.96
2022-10-17T02:29:25.775Z,9.90
2022-10-17T02:32:18.068Z,9.87
2022-10-17T02:34:50.800Z,9.95
2022-10-17T02:37:25.519Z,9.85
2022-10-17T02:39:56.238Z,9.88
2022-10-17T02:42:26.368Z,9.80
2022-10-17T02:44:59.148Z,9.86
2022-10-17T02:47:32.065Z,9.82
2022-10-17T02:50:00.250Z,9.81
2022-10-17T02:52:36.637Z,9.88
2022-10-17T02:55:18.578Z,9.87
2022-10-17T02:57:54.576Z,9.95
2022-10-17T03:00:23.842Z,9.94
2022-10-17T03:02:53.107Z,9.97
2022-10-17T03:05:23.441Z,9.98
2022-10-17T03:07:51.774Z,9.98
2022-10-17T03:10:19.724Z,10.00
2022-10-17T03:12:47.199Z,9.97
2022-10-17T03:15:15.135Z,9.93
2022-10-17T03:17:43.057Z,9.98
2022-10-17T03:20:11.193Z,9.98
2022-10-17T03:22:38.789Z,10.03
2022-10-17T03:25:06.692Z,10.06
2022-10-17T03:27:34.432Z,10.06
2022-10-17T03:30:02.323Z,10.11
2022-10-17T03:32:34.200Z,10.15
2022-10-17T03:35:02.732Z,10.11
2022-10-17T03:37:30.905Z,10.12
2022-10-17T03:39:58.989Z,10.13
2022-10-17T03:42:26.547Z,10.14
2022-10-17T03:44:54.050Z,10.12
2022-10-17T03:47:21.584Z,10.15
2022-10-17T03:49:49.305Z,10.12
2022-10-17T03:52:16.756Z,10.15
2022-10-17T03:54:44.294Z,10.14
2022-10-17T03:57:12.069Z,10.12
2022-10-17T03:59:39.617Z,10.10
2022-10-17T04:02:07.229Z,10.11
2022-10-17T04:04:34.661Z,10.11
2022-10-17T04:07:02.355Z,10.08
2022-10-17T04:09:30.172Z,10.10
2022-10-17T04:11:57.836Z,10.09
2022-10-17T04:14:25.417Z,10.13
2022-10-17T04:16:53.644Z,10.17
2022-10-17T04:19:21.265Z,10.21
2022-10-17T04:21:48.813Z,10.21
2022-10-17T04:24:16.515Z,10.21
2022-10-17T04:26:44.181Z,10.25
2022-10-17T04:29:12.046Z,10.29
2022-10-17T04:31:39.569Z,10.29
2022-10-17T04:34:06.997Z,10.24
2022-10-17T04:36:34.527Z,10.29
2022-10-17T04:39:03.661Z,10.28
2022-10-17T04:41:31.706Z,10.23
2022-10-17T04:43:59.478Z,10.23
2022-10-17T04:46:27.130Z,10.30
2022-10-17T04:48:54.951Z,10.25
2022-10-17T04:51:24.618Z,10.23
2022-10-17T04:53:54.904Z,10.23
2022-10-17T04:56:24.711Z,10.25
2022-10-17T04:58:52.681Z,10.31
2022-10-17T05:01:23.133Z,10.31
2022-10-17T05:03:50.960Z,10.26
2022-10-17T05:06:24.615Z,10.26
2022-10-17T05:08:52.293Z,10.26
2022-10-17T05:11:27.570Z,10.26
2022-10-17T05:13:57.990Z,10.30
2022-10-17T05:16:26.455Z,10.34
2022-10-17T05:18:56.612Z,10.33
2022-10-17T05:21:26.534Z,10.34
2022-10-17T05:23:54.138Z,10.35
2022-10-17T05:26:22.409Z,10.35
2022-10-17T05:28:52.427Z,10.38
2022-10-17T05:31:20.374Z,10.39
2022-10-17T05:33:48.098Z,10.42
2022-10-17T05:36:15.828Z,10.42
2022-10-17T05:38:43.439Z,10.45
2022-10-17T05:41:11.235Z,10.44
2022-10-17T05:43:38.956Z,10.43
2022-10-17T05:46:07.093Z,10.46
2022-10-17T05:48:34.940Z,10.49
2022-10-17T05:51:08.867Z,10.46
2022-10-17T05:53:40.741Z,10.46
2022-10-17T05:56:10.370Z,10.49
2022-10-17T05:59:00.707Z,10.49
2022-10-17T06:01:29.109Z,10.50
2022-10-17T06:03:57.045Z,10.47
2022-10-17T06:06:24.591Z,10.49
2022-10-17T06:08:52.385Z,10.49
2022-10-17T06:11:20.117Z,10.47
2022-10-17T06:13:47.530Z,10.45
2022-10-17T06:16:15.050Z,10.50
2022-10-17T06:18:42.765Z,10.52
2022-10-17T06:21:12.215Z,10.61
2022-10-17T06:23:39.843Z,10.59
2022-10-17T06:26:07.790Z,10.59
2022-10-17T06:28:36.097Z,10.56
2022-10-17T06:31:08.890Z,10.61
2022-10-17T06:33:37.242Z,10.60
2022-10-17T06:36:06.894Z,10.60
2022-10-17T06:38:35.236Z,10.66
2022-10-17T06:41:22.936Z,10.68
2022-10-17T06:43:50.640Z,10.70
2022-10-17T06:46:19.657Z,10.75
2022-10-17T06:48:47.099Z,10.80
2022-10-17T06:51:14.649Z,10.79
2022-10-17T06:53:42.492Z,10.81
2022-10-17T06:56:10.660Z,10.79
2022-10-17T06:58:39.745Z,10.79
2022-10-17T07:01:11.176Z,10.87
2022-10-17T07:03:40.221Z,10.89
2022-10-17T07:06:07.904Z,10.90
2022-10-17T07:08:35.363Z,10.94
2022-10-17T07:11:11.123Z,10.93
2022-10-17T07:13:39.675Z,10.95
2022-10-17T07:16:08.058Z,10.97
2022-10-17T07:18:35.736Z,10.98
2022-10-17T07:21:04.115Z,11.10
2022-10-17T07:23:33.752Z,11.15
2022-10-17T07:26:03.319Z,11.11
2022-10-17T07:28:30.856Z,11.21
2022-10-17T07:31:07.175Z,11.23
2022-10-17T07:33:35.179Z,11.19
2022-10-17T07:36:05.193Z,11.21
2022-10-17T07:38:32.897Z,11.18
2022-10-17T07:41:02.792Z,11.34
2022-10-17T07:43:30.879Z,11.27
2022-10-17T07:45:58.760Z,11.22
2022-10-17T07:48:26.404Z,11.21
2022-10-17T07:50:54.069Z,11.21
2022-10-17T07:53:21.974Z,11.24
2022-10-17T07:55:49.838Z,11.24
2022-10-17T07:58:17.777Z,11.27
2022-10-17T08:00:48.573Z,11.32
2022-10-17T08:03:16.591Z,11.35
2022-10-17T08:05:44.098Z,11.42
2022-10-17T08:08:11.922Z,11.53
2022-10-17T08:10:39.750Z,11.73
2022-10-17T08:13:07.540Z,11.73
2022-10-17T08:15:37.747Z,11.69
2022-10-17T08:18:05.524Z,11.72
2022-10-17T08:20:33.527Z,11.70
2022-10-17T08:23:01.106Z,11.70
2022-10-17T08:25:28.630Z,11.68
2022-10-17T08:27:56.557Z,11.66
2022-10-17T08:30:24.437Z,11.64
2022-10-17T08:32:52.193Z,11.60
2022-10-17T08:35:21.886Z,11.58
2022-10-17T08:37:49.801Z,11.57
2022-10-17T08:40:22.585Z,11.57
2022-10-17T08:42:56.526Z,11.60
2022-10-17T08:45:36.562Z,11.64
2022-10-17T08:48:13.583Z,11.71
2022-10-17T08:50:46.580Z,11.78
2022-10-17T08:53:32.013Z,11.80
2022-10-17T08:56:07.215Z,11.83
2022-10-17T08:58:38.047Z,11.82
2022-10-17T09:01:28.045Z,11.76
2022-10-17T09:04:01.665Z,11.75
2022-10-17T09:06:37.394Z,11.76
2022-10-17T09:09:17.286Z,11.80
2022-10-17T09:11:54.074Z,11.80
2022-10-17T09:14:58.808Z,11.70
2022-10-17T09:17:38.881Z,11.69
2022-10-17T09:20:18.789Z,11.69
2022-10-17T09:22:59.846Z,11.61
2022-10-17T09:25:28.154Z,11.61
2022-10-17T09:28:10.745Z,11.63
2022-10-17T09:30:55.890Z,11.66
2022-10-17T09:33:35.137Z,11.73
2022-10-17T09:36:22.914Z,11.77
2022-10-17T09:38:56.580Z,11.77
2022-10-17T09:41:44.857Z,11.81
2022-10-17T09:44:16.028Z,11.79
2022-10-17T09:46:55.254Z,11.86
2022-10-17T09:49:37.986Z,11.94
2022-10-17T09:52:30.673Z,11.96
2022-10-17T09:55:04.569Z,11.93
2022-10-17T09:57:56.433Z,12.01
2022-10-17T10:00:31.778Z,12.06
2022-10-17T10:03:28.514Z,12.06
2022-10-17T10:06:03.033Z,12.06
2022-10-17T10:08:36.119Z,12.06
2022-10-17T10:11:13.458Z,12.01
2022-10-17T10:13:43.152Z,12.00
2022-10-17T10:16:30.194Z,11.97
2022-10-17T10:18:58.283Z,12.00
2022-10-17T10:21:27.593Z,11.97
2022-10-17T10:24:04.274Z,11.99
2022-10-17T10:26:53.508Z,12.00
2022-10-17T10:29:34.125Z,12.07
2022-10-17T10:32:07.390Z,12.07
2022-10-17T10:34:36.098Z,12.09
2022-10-17T10:37:05.504Z,12.12
2022-10-17T10:39:38.041Z,12.11
2022-10-17T10:42:17.203Z,12.08
2022-10-17T10:44:44.954Z,11.94
2022-10-17T10:47:20.649Z,11.84
2022-10-17T10:49:52.780Z,11.84
2022-10-17T10:52:30.452Z,11.89
2022-10-17T10:55:17.555Z,11.89
2022-10-17T10:57:48.012Z,11.91
2022-10-17T11:00:24.518Z,11.91
2022-10-17T11:03:01.839Z,11.96
2022-10-17T11:06:17.135Z,11.97
2022-10-17T11:09:00.474Z,11.99
2022-10-17T11:11:39.924Z,11.97
2022-10-17T11:14:16.711Z,11.85
2022-10-17T11:17:29.030Z,11.84
2022-10-17T11:19:59.087Z,11.81
2022-10-17T11:22:37.334Z,11.81
2022-10-17T11:25:17.388Z,11.90
2022-10-17T11:27:44.949Z,11.89
2022-10-17T11:30:16.741Z,11.96
2022-10-17T11:32:54.156Z,12.03
2022-10-17T11:35:25.251Z,12.00
2022-10-17T11:38:10.723Z,12.00
2022-10-17T11:40:43.566Z,12.05
2022-10-17T11:43:11.068Z,11.97
2022-10-17T11:45:47.083Z,11.95
2022-10-17T11:48:25.533Z,11.92
2022-10-17T11:53:55.751Z,11.81
2022-10-17T11:56:42.754Z,11.85
2022-10-17T11:59:10.438Z,11.93
2022-10-17T12:01:47.123Z,11.94
2022-10-17T12:04:20.424Z,11.88
2022-10-17T12:07:13.724Z,11.90
2022-10-17T12:10:13.367Z,11.94
2022-10-17T12:12:41.127Z,11.98
2022-10-17T12:15:11.599Z,12.08
2022-10-17T12:17:45.400Z,12.09
2022-10-17T12:20:25.738Z,11.99
2022-10-17T12:23:03.049Z,12.01
2022-10-17T12:28:21.074Z,11.99
2022-10-17T12:31:05.853Z,11.97
2022-10-17T12:33:48.466Z,11.98
2022-10-17T12:36:18.730Z,11.96
2022-10-17T12:38:50.058Z,11.91
2022-10-17T12:41:40.642Z,11.85
2022-10-17T12:44:14.097Z,11.81
2022-10-17T12:47:01.857Z,11.81
2022-10-17T12:49:47.488Z,11.81
2022-10-17T12:52:18.097Z,11.83
2022-10-17T12:55:12.969Z,11.80
2022-10-17T12:57:48.532Z,11.84
2022-10-17T13:00:33.586Z,11.82
2022-10-17T13:03:19.389Z,11.85
2022-10-17T13:05:56.860Z,11.85
2022-10-17T13:08:29.478Z,11.89
2022-10-17T13:10:57.833Z,11.88
2022-10-17T13:13:45.272Z,11.83
2022-10-17T13:16:39.061Z,11.76
2022-10-17T13:19:15.313Z,11.73
2022-10-17T13:21:59.933Z,11.73
2022-10-17T13:24:39.193Z,11.74
2022-10-17T13:27:27.713Z,11.75
2022-10-17T13:29:58.855Z,11.70
2022-10-17T13:32:35.074Z,11.58
2022-10-17T13:35:13.232Z,11.58
2022-10-17T13:37:50.230Z,11.63
2022-10-17T13:40:49.598Z,11.63
2022-10-17T13:43:19.341Z,11.65
2022-10-17T13:45:50.525Z,11.78
2022-10-17T13:48:23.780Z,11.73
2022-10-17T13:50:56.390Z,11.70
2022-10-17T13:53:31.036Z,11.74
2022-10-17T13:56:16.144Z,11.71
2022-10-17T13:58:49.362Z,11.67
2022-10-17T14:01:19.095Z,11.63
2022-10-17T14:03:50.182Z,11.61
2022-10-17T14:06:26.986Z,11.59
2022-10-17T14:09:07.425Z,11.57
2022-10-17T14:11:44.210Z,11.55
2022-10-17T14:14:24.819Z,11.54
2022-10-17T14:16:52.950Z,11.52
2022-10-17T14:19:30.846Z,11.51
2022-10-17T14:22:23.581Z,11.50
2022-10-17T14:24:53.401Z,11.55
2022-10-17T14:27:26.989Z,11.49
2022-10-17T14:30:00.969Z,11.42
2022-10-17T14:32:34.819Z,11.36
2022-10-17T14:35:30.201Z,11.35
2022-10-17T14:37:57.517Z,11.29
2022-10-17T14:40:27.363Z,11.32
2022-10-17T14:42:57.941Z,11.27
2022-10-17T14:45:35.830Z,11.26
2022-10-17T14:48:10.499Z,11.26
2022-10-17T14:50:38.643Z,11.31
2022-10-17T14:53:12.209Z,11.30
2022-10-17T14:55:54.199Z,11.28
2022-10-17T14:58:27.973Z,11.25
2022-10-17T15:02:13.522Z,11.27
2022-10-17T15:04:20.532Z,11.28
2022-10-17T15:06:57.247Z,11.28
2022-10-17T15:09:28.597Z,11.24
2022-10-17T15:12:01.228Z,11.24
2022-10-17T15:14:29.070Z,11.26
2022-10-17T15:16:56.562Z,11.19
2022-10-17T15:19:24.126Z,11.16
2022-10-17T15:21:52.038Z,11.12
2022-10-17T15:24:19.622Z,11.17
2022-10-17T15:26:47.136Z,11.12
2022-10-17T15:29:16.150Z,11.06
2022-10-17T15:31:43.864Z,11.04
2022-10-17T15:34:11.361Z,10.93
2022-10-17T15:36:48.349Z,10.96
2022-10-17T15:39:16.094Z,10.99
2022-10-17T15:41:44.199Z,10.98
2022-10-17T15:44:11.966Z,11.00
2022-10-17T15:46:41.748Z,10.99
2022-10-17T15:49:15.010Z,11.02
2022-10-17T15:51:42.832Z,11.01
2022-10-17T15:54:10.350Z,10.98
2022-10-17T15:56:41.319Z,10.96
2022-10-17T15:59:15.775Z,10.95
2022-10-17T16:01:43.970Z,10.96
2022-10-17T16:04:15.177Z,10.97
2022-10-17T16:06:43.584Z,10.96
2022-10-17T16:09:11.314Z,10.92
2022-10-17T16:11:43.465Z,10.94
2022-10-17T16:14:16.519Z,10.94
2022-10-17T16:16:44.763Z,10.93
2022-10-17T16:19:12.673Z,10.95
2022-10-17T16:21:41.761Z,10.92
2022-10-17T16:24:12.721Z,10.89
2022-10-17T16:26:41.139Z,10.88
2022-10-17T16:29:10.185Z,10.90
2022-10-17T16:31:40.488Z,10.87
2022-10-17T16:34:08.977Z,10.89
2022-10-17T16:36:36.542Z,10.87
2022-10-17T16:39:04.518Z,10.85
2022-10-17T16:41:37.320Z,10.83
2022-10-17T16:44:07.753Z,10.86
2022-10-17T16:46:37.457Z,10.84
2022-10-17T16:49:05.765Z,10.84
2022-10-17T16:51:35.845Z,10.85
2022-10-17T16:54:04.645Z,10.78
2022-10-17T16:56:33.041Z,10.77
2022-10-17T16:59:01.453Z,10.82
2022-10-17T17:01:29.475Z,10.77
2022-10-17T17:03:57.635Z,10.79
2022-10-17T17:06:28.496Z,10.81
2022-10-17T17:08:57.164Z,10.82
2022-10-17T17:11:26.905Z,10.77
2022-10-17T17:13:56.816Z,10.72
2022-10-17T17:16:26.267Z,10.76
2022-10-17T17:18:56.366Z,10.74
2022-10-17T17:21:24.321Z,10.71
2022-10-17T17:23:52.039Z,10.67
2022-10-17T17:26:22.023Z,10.64
2022-10-17T17:28:50.762Z,10.64
2022-10-17T17:31:24.347Z,10.63
2022-10-17T17:33:53.417Z,10.66
2022-10-17T17:36:41.354Z,10.62
2022-10-17T17:39:12.473Z,10.61
2022-10-17T17:41:41.574Z,10.61
2022-10-17T17:44:15.753Z,10.57
2022-10-17T17:46:45.188Z,10.59
2022-10-17T17:49:12.945Z,10.56
2022-10-17T17:51:41.898Z,10.52
2022-10-17T17:54:11.666Z,10.50
2022-10-17T17:56:39.563Z,10.49
2022-10-17T17:59:07.669Z,10.46
2022-10-17T18:01:39.272Z,10.51
2022-10-17T18:04:09.064Z,10.49
2022-10-17T18:06:38.511Z,10.51
2022-10-17T18:09:08.084Z,10.50
2022-10-17T18:11:37.531Z,10.51
2022-10-17T18:14:07.840Z,10.44
2022-10-17T18:16:37.192Z,10.47
2022-10-17T18:19:07.280Z,10.50
2022-10-17T18:21:36.432Z,10.48
2022-10-17T18:24:05.171Z,10.51
2022-10-17T18:26:33.459Z,10.46
2022-10-17T18:29:01.815Z,10.47
2022-10-17T18:31:32.308Z,10.49
2022-10-17T18:34:02.971Z,10.47
2022-10-17T18:36:31.959Z,10.41
2022-10-17T18:39:00.298Z,10.38
2022-10-17T18:41:28.753Z,10.38
2022-10-17T18:43:57.122Z,10.32
2022-10-17T18:46:27.807Z,10.27
2022-10-17T18:48:56.187Z,10.29
2022-10-17T18:51:25.616Z,10.29
2022-10-17T18:53:55.636Z,10.26
2022-10-17T18:56:23.682Z,10.29
2022-10-17T18:58:51.941Z,10.31
2022-10-17T19:01:22.838Z,10.28
2022-10-17T19:03:52.351Z,10.25
2022-10-17T19:06:22.806Z,10.26
2022-10-17T19:08:50.397Z,10.23
2022-10-17T19:11:21.510Z,10.24
2022-10-17T19:13:50.213Z,10.29
2022-10-17T19:16:21.387Z,10.26
2022-10-17T19:18:52.722Z,10.26
2022-10-17T19:21:22.049Z,10.29
2022-10-17T19:23:52.434Z,10.32
2022-10-17T19:26:20.884Z,10.29
2022-10-17T19:28:52.238Z,10.32
2022-10-17T19:31:26.531Z,10.33
2022-10-17T19:33:56.197Z,10.25
2022-10-17T19:36:29.067Z,10.24
2022-10-17T19:39:00.976Z,10.26
2022-10-17T19:41:28.941Z,10.27
2022-10-17T19:43:57.357Z,10.25
2022-10-17T19:46:27.251Z,10.26
2022-10-17T19:48:55.272Z,10.19
2022-10-17T19:51:25.100Z,10.17
2022-10-17T19:53:54.833Z,10.14
2022-10-17T19:56:25.084Z,10.14
2022-10-17T19:58:54.405Z,10.17
2022-10-17T20:01:27.996Z,10.16
2022-10-17T20:03:56.555Z,10.16
2022-10-17T20:06:24.854Z,10.12
2022-10-17T20:08:52.845Z,10.20
2022-10-17T20:11:23.372Z,10.17
2022-10-17T20:13:51.580Z,10.09
2022-10-17T20:16:22.015Z,10.06
2022-10-17T20:18:51.666Z,10.06
2022-10-17T20:21:22.023Z,10.07
2022-10-17T20:23:50.633Z,10.06
2022-10-17T20:26:38.607Z,10.05
2022-10-17T20:29:12.128Z,10.01
2022-10-17T20:31:41.312Z,10.02
2022-10-17T20:34:11.922Z,10.06
2022-10-17T20:36:39.853Z,10.03
2022-10-17T20:39:09.871Z,10.11
2022-10-17T20:41:37.555Z,10.11
2022-10-17T20:44:06.922Z,10.08
2022-10-17T20:46:37.808Z,10.05
2022-10-17T20:49:14.003Z,10.04
2022-10-17T20:51:41.882Z,10.04
2022-10-17T20:54:09.775Z,10.11
2022-10-17T20:56:38.632Z,10.05
2022-10-17T20:59:08.454Z,10.05
2022-10-17T21:01:36.308Z,10.03
2022-10-17T21:06:53.576Z,10.09
2022-10-17T21:09:22.194Z,10.10
2022-10-17T21:11:55.727Z,10.06
2022-10-17T21:14:33.804Z,10.06
2022-10-17T21:17:04.954Z,10.09
2022-10-17T21:19:33.601Z,10.09
2022-10-17T21:22:01.747Z,10.06
2022-10-17T21:24:29.551Z,10.06
2022-10-17T21:26:57.643Z,10.12
2022-10-17T21:29:25.262Z,10.13
2022-10-17T21:31:52.999Z,10.16
2022-10-17T21:34:23.903Z,10.16
2022-10-17T21:36:51.843Z,10.22
2022-10-17T21:39:19.844Z,10.25
2022-10-17T21:41:47.532Z,10.28
2022-10-17T21:44:17.628Z,10.27
2022-10-17T21:46:46.097Z,10.32
2022-10-17T21:49:17.066Z,10.32
2022-10-17T21:51:45.419Z,10.33
2022-10-17T21:54:13.644Z,10.30
2022-10-17T21:56:41.836Z,10.24
2022-10-17T21:59:09.790Z,10.22
2022-10-17T22:01:43.437Z,10.22
2022-10-17T22:04:14.366Z,10.24
2022-10-17T22:06:43.882Z,10.21
2022-10-17T22:09:22.809Z,10.21
2022-10-17T22:11:53.398Z,10.13
2022-10-17T22:14:22.764Z,10.13
2022-10-17T22:16:50.733Z,10.10
2022-10-17T22:19:22.481Z,10.07
2022-10-17T22:21:50.745Z,10.02
2022-10-17T22:26:48.927Z,10.06
2022-10-17T22:29:17.048Z,10.04
2022-10-17T22:31:44.886Z,10.07
2022-10-17T22:34:14.827Z,10.05
2022-10-17T22:36:42.795Z,10.07
2022-10-17T22:39:11.132Z,10.03
2022-10-17T22:41:38.610Z,10.03
2022-10-17T22:44:06.359Z,10.03
2022-10-17T22:46:34.167Z,10.05
2022-10-17T22:49:01.918Z,10.03
2022-10-17T22:51:29.764Z,10.02
2022-10-17T22:53:57.219Z,10.04
2022-10-17T22:56:24.938Z,10.00
2022-10-17T22:58:53.419Z,9.98
2022-10-17T23:01:24.942Z,9.97
2022-10-17T23:03:52.905Z,9.95
2022-10-17T23:06:21.163Z,9.94
2022-10-17T23:08:49.373Z,9.94
2022-10-17T23:11:17.288Z,9.98
2022-10-17T23:13:44.910Z,9.90
2022-10-17T23:16:12.425Z,9.87
2022-10-17T23:18:40.101Z,9.85
2022-10-17T23:21:08.373Z,9.82
2022-10-17T23:23:36.850Z,9.80
2022-10-17T23:26:14.556Z,9.77
2022-10-17T23:28:43.530Z,9.76
2022-10-17T23:31:18.587Z,9.79
2022-10-17T23:33:48.027Z,9.74
2022-10-17T23:36:17.666Z,9.77
2022-10-17T23:38:46.881Z,9.82
2022-10-17T23:41:14.549Z,9.84
2022-10-17T23:43:42.168Z,9.82
2022-10-17T23:46:10.145Z,9.77
2022-10-17T23:48:38.626Z,9.75
2022-10-17T23:51:07.985Z,9.74
2022-10-17T23:53:36.150Z,9.74
2022-10-17T23:56:05.227Z,9.71
2022-10-17T23:58:32.871Z,9.72
